createdAt,value
2019-03-10T00:01:06.545Z,17.07
2019-03-10T00:03:38.630Z,12.53
2019-03-10T00:06:10.655Z,15.53
2019-03-10T00:08:43.150Z,14.63
2019-03-10T00:11:15.176Z,16.57
2019-03-10T00:13:47.723Z,11.97
2019-03-10T00:16:20.872Z,14.30
2019-03-10T00:18:52.495Z,13.67
2019-03-10T00:21:23.263Z,12.17
2019-03-10T00:23:55.614Z,9.97
2019-03-10T00:26:27.475Z,13.73
2019-03-10T00:29:00.464Z,11.57
2019-03-10T00:31:33.687Z,10.37
2019-03-10T00:34:06.726Z,15.27
2019-03-10T00:36:40.667Z,14.63
2019-03-10T00:39:36.149Z,11.37
2019-03-10T00:42:35.166Z,11.03
2019-03-10T00:45:27.364Z,15.37
2019-03-10T00:48:28.628Z,11.00
2019-03-10T00:51:30.825Z,13.33
2019-03-10T00:54:01.865Z,10.07
2019-03-10T00:56:33.671Z,11.43
2019-03-10T00:59:06.148Z,13.67
2019-03-10T01:01:37.510Z,10.27
2019-03-10T01:04:09.249Z,13.70
2019-03-10T01:06:41.412Z,14.67
2019-03-10T01:09:15.575Z,9.10
2019-03-10T01:11:46.812Z,7.03
2019-03-10T01:14:17.721Z,9.67
2019-03-10T01:16:50.645Z,7.17
2019-03-10T01:19:28.714Z,9.97
2019-03-10T01:22:02.706Z,11.97
2019-03-10T01:24:34.493Z,15.63
2019-03-10T01:27:07.282Z,14.10
2019-03-10T01:29:39.173Z,9.20
2019-03-10T01:32:28.684Z,9.20
2019-03-10T01:35:06.018Z,13.23
2019-03-10T01:37:39.596Z,17.00
2019-03-10T01:40:13.430Z,13.23
2019-03-10T01:42:45.781Z,13.20
2019-03-10T01:45:17.656Z,14.07
2019-03-10T01:47:51.037Z,14.90
2019-03-10T01:50:21.650Z,11.43
2019-03-10T01:52:53.027Z,10.90
2019-03-10T01:55:24.623Z,13.73
2019-03-10T01:57:56.856Z,10.57
2019-03-10T02:00:30.107Z,11.17
2019-03-10T02:03:02.710Z,14.00
2019-03-10T02:05:35.736Z,12.73
2019-03-10T02:08:06.591Z,12.77
2019-03-10T02:10:39.113Z,12.13
2019-03-10T02:13:14.454Z,13.93
2019-03-10T02:15:45.569Z,13.60
2019-03-10T02:18:19.228Z,11.73
2019-03-10T02:20:50.165Z,9.83
2019-03-10T02:23:23.632Z,11.93
2019-03-10T02:25:55.033Z,16.13
2019-03-10T02:28:35.052Z,13.60
2019-03-10T02:31:05.992Z,16.13
2019-03-10T02:33:38.853Z,16.63
2019-03-10T02:36:09.501Z,13.03
2019-03-10T02:38:43.107Z,13.40
2019-03-10T02:41:15.075Z,12.37
2019-03-10T02:43:49.280Z,11.20
2019-03-10T02:46:20.964Z,13.30
2019-03-10T02:48:52.101Z,12.50
2019-03-10T02:51:49.128Z,9.77
2019-03-10T02:54:28.151Z,15.10
2019-03-10T02:57:00.807Z,14.97
2019-03-10T02:59:33.058Z,13.70
2019-03-10T03:02:05.711Z,14.93
2019-03-10T03:04:45.163Z,12.83
2019-03-10T03:07:18.916Z,10.80
2019-03-10T03:09:50.915Z,14.10
2019-03-10T03:12:22.012Z,12.50
2019-03-10T03:14:54.668Z,16.37
2019-03-10T03:17:27.781Z,20.60
2019-03-10T03:20:00.980Z,12.17
2019-03-10T03:22:33.543Z,9.87
2019-03-10T03:25:06.372Z,18.93
2019-03-10T03:27:40.118Z,15.37
2019-03-10T03:30:13.539Z,16.33
2019-03-10T03:32:45.761Z,18.73
2019-03-10T03:35:46.243Z,11.37
2019-03-10T03:38:20.681Z,13.27
2019-03-10T03:41:04.628Z,21.63
2019-03-10T03:43:40.134Z,12.73
2019-03-10T03:46:11.623Z,7.90
2019-03-10T03:48:44.815Z,11.37
2019-03-10T03:51:18.827Z,15.23
2019-03-10T03:53:50.988Z,10.33
2019-03-10T03:56:24.218Z,16.90
2019-03-10T03:58:56.899Z,13.17
2019-03-10T04:01:31.353Z,17.73
2019-03-10T04:04:03.331Z,13.50
2019-03-10T04:06:37.347Z,16.33
2019-03-10T04:09:19.725Z,11.23
2019-03-10T04:11:51.757Z,16.80
2019-03-10T04:14:25.258Z,11.93
2019-03-10T04:16:56.996Z,13.40
2019-03-10T04:19:35.326Z,10.57
2019-03-10T04:22:09.182Z,22.43
2019-03-10T04:24:43.703Z,19.17
2019-03-10T04:27:18.037Z,16.27
2019-03-10T04:29:50.873Z,20.43
2019-03-10T04:32:25.434Z,21.00
2019-03-10T04:34:59.361Z,14.80
2019-03-10T04:37:35.097Z,13.83
2019-03-10T04:40:16.675Z,9.27
2019-03-10T04:42:54.586Z,12.50
2019-03-10T04:45:27.503Z,15.50
2019-03-10T04:47:59.723Z,15.00
2019-03-10T04:50:37.947Z,14.93
2019-03-10T04:53:09.941Z,10.77
2019-03-10T04:55:43.271Z,17.47
2019-03-10T04:58:21.818Z,13.07
2019-03-10T05:00:57.580Z,22.07
2019-03-10T05:03:29.136Z,22.33
2019-03-10T05:06:00.982Z,22.50
2019-03-10T05:08:33.321Z,15.83
2019-03-10T05:11:04.411Z,9.03
2019-03-10T05:13:37.751Z,19.03
2019-03-10T05:16:09.611Z,17.97
2019-03-10T05:18:43.743Z,15.27
2019-03-10T05:21:15.420Z,13.53
2019-03-10T05:23:48.624Z,10.93
2019-03-10T05:26:19.352Z,13.20
2019-03-10T05:28:50.336Z,12.53
2019-03-10T05:31:23.090Z,14.30
2019-03-10T05:33:54.015Z,12.50
2019-03-10T05:50:25.946Z,11.00
2019-03-10T05:52:56.725Z,7.60
2019-03-10T05:55:27.804Z,6.83
2019-03-10T05:57:58.520Z,15.87
2019-03-10T06:00:29.953Z,9.87
2019-03-10T06:03:01.270Z,8.73
2019-03-10T06:05:32.084Z,7.20
2019-03-10T06:08:03.217Z,11.10
2019-03-10T06:10:33.701Z,9.37
2019-03-10T06:13:06.103Z,7.10
2019-03-10T06:15:39.972Z,11.97
2019-03-10T06:18:13.996Z,10.80
2019-03-10T06:20:46.348Z,11.93
2019-03-10T06:23:17.833Z,6.63
2019-03-10T06:25:48.460Z,10.30
2019-03-10T06:28:19.313Z,8.33
2019-03-10T06:30:51.048Z,11.27
2019-03-10T06:33:22.339Z,6.57
2019-03-10T06:35:53.875Z,8.93
2019-03-10T06:38:25.642Z,9.00
2019-03-10T06:40:56.023Z,11.93
2019-03-10T06:43:27.193Z,7.53
2019-03-10T06:45:58.877Z,6.73
2019-03-10T06:48:30.064Z,7.83
2019-03-10T06:51:00.657Z,12.33
2019-03-10T06:53:31.410Z,11.80
2019-03-10T06:56:02.136Z,9.10
2019-03-10T06:58:32.676Z,6.27
2019-03-10T07:01:03.867Z,6.67
2019-03-10T07:03:38.830Z,5.17
2019-03-10T07:06:09.068Z,6.47
2019-03-10T07:08:41.278Z,12.57
2019-03-10T07:11:12.042Z,15.13
2019-03-10T07:13:43.191Z,14.30
2019-03-10T07:16:14.426Z,3.37
2019-03-10T07:18:44.985Z,15.53
2019-03-10T07:21:16.301Z,9.63
2019-03-10T07:23:46.931Z,11.90
2019-03-10T07:26:18.580Z,8.03
2019-03-10T07:29:00.382Z,8.03
2019-03-10T07:31:41.787Z,11.73
2019-03-10T07:34:30.006Z,6.70
2019-03-10T07:37:06.039Z,8.50
2019-03-10T07:39:41.321Z,10.30
2019-03-10T07:42:19.610Z,5.07
2019-03-10T07:45:00.604Z,11.30
2019-03-10T07:47:35.830Z,15.93
2019-03-10T07:50:23.220Z,8.30
2019-03-10T07:52:58.542Z,17.60
2019-03-10T07:55:47.454Z,14.70
2019-03-10T07:58:25.950Z,13.57
2019-03-10T08:00:57.532Z,11.90
2019-03-10T08:03:39.439Z,16.80
2019-03-10T08:06:14.019Z,12.43
2019-03-10T08:08:46.103Z,12.97
2019-03-10T08:11:21.212Z,19.03
2019-03-10T08:13:53.025Z,17.30
2019-03-10T08:16:27.689Z,12.57
2019-03-10T08:19:02.680Z,11.07
2019-03-10T08:21:49.872Z,9.50
2019-03-10T08:24:22.475Z,9.47
2019-03-10T08:26:56.669Z,10.20
2019-03-10T08:29:50.489Z,11.30
2019-03-10T08:32:30.193Z,11.57
2019-03-10T08:35:01.962Z,15.10
2019-03-10T08:37:34.000Z,8.33
2019-03-10T08:40:22.474Z,9.90
2019-03-10T08:42:56.385Z,12.57
2019-03-10T08:45:34.093Z,12.37
2019-03-10T08:48:09.956Z,10.57
2019-03-10T08:50:45.736Z,13.47
2019-03-10T08:53:22.409Z,9.60
2019-03-10T08:55:54.611Z,11.00
2019-03-10T08:58:26.853Z,9.27
2019-03-10T09:01:16.115Z,8.77
2019-03-10T09:03:50.834Z,8.40
2019-03-10T09:06:39.491Z,10.37
2019-03-10T09:09:30.053Z,10.20
2019-03-10T09:12:18.224Z,10.13
2019-03-10T09:14:59.844Z,14.03
2019-03-10T09:17:32.915Z,7.37
2019-03-10T09:20:07.473Z,12.10
2019-03-10T09:22:39.831Z,9.07
2019-03-10T09:25:21.935Z,7.87
2019-03-10T09:28:00.774Z,11.90
2019-03-10T09:30:38.795Z,10.03
2019-03-10T09:33:11.248Z,10.37
2019-03-10T09:35:58.303Z,7.63
2019-03-10T09:38:42.748Z,15.17
2019-03-10T09:41:20.968Z,9.77
2019-03-10T09:43:52.952Z,11.10
2019-03-10T09:46:27.412Z,8.50
2019-03-10T09:49:08.098Z,10.80
2019-03-10T09:51:39.922Z,9.57
2019-03-10T09:54:18.775Z,9.00
2019-03-10T09:56:56.064Z,10.87
2019-03-10T09:59:28.130Z,8.77
2019-03-10T10:02:01.407Z,11.23
2019-03-10T10:04:44.916Z,8.37
2019-03-10T10:07:18.487Z,14.70
2019-03-10T10:09:53.575Z,11.87
2019-03-10T10:12:43.143Z,10.47
2019-03-10T10:15:27.513Z,8.40
2019-03-10T10:17:59.458Z,11.57
2019-03-10T10:20:34.827Z,9.97
2019-03-10T10:23:11.511Z,10.03
2019-03-10T10:25:49.574Z,7.13
2019-03-10T10:28:21.515Z,10.37
2019-03-10T10:31:00.137Z,9.43
2019-03-10T10:33:32.463Z,7.97
2019-03-10T10:36:14.294Z,6.57
2019-03-10T10:38:52.953Z,5.20
2019-03-10T10:41:42.471Z,14.43
2019-03-10T10:44:32.020Z,8.13
2019-03-10T10:47:22.133Z,8.33
2019-03-10T10:49:56.639Z,8.20
2019-03-10T10:52:30.931Z,8.93
2019-03-10T10:55:09.604Z,10.00
2019-03-10T10:57:55.894Z,13.50
2019-03-10T11:00:40.129Z,9.03
2019-03-10T11:03:14.819Z,9.13
2019-03-10T11:05:56.375Z,5.77
2019-03-10T11:08:28.979Z,7.47
2019-03-10T11:11:10.796Z,9.10
2019-03-10T11:14:02.172Z,8.70
2019-03-10T11:16:41.459Z,6.50
2019-03-10T11:19:23.020Z,11.43
2019-03-10T11:22:07.991Z,7.20
2019-03-10T11:24:41.649Z,5.93
2019-03-10T11:27:32.094Z,3.77
2019-03-10T11:30:14.720Z,7.80
2019-03-10T11:33:09.586Z,8.47
2019-03-10T11:35:59.979Z,9.00
2019-03-10T11:38:54.481Z,9.10
2019-03-10T11:41:49.760Z,6.60
2019-03-10T11:44:35.912Z,6.73
2019-03-10T11:47:32.961Z,5.87
2019-03-10T11:50:23.995Z,9.70
2019-03-10T11:53:29.389Z,9.60
2019-03-10T11:56:17.535Z,8.13
2019-03-10T11:58:59.689Z,11.40
2019-03-10T12:01:50.595Z,8.80
2019-03-10T12:04:36.296Z,7.23
2019-03-10T12:07:22.327Z,6.43
2019-03-10T12:10:10.855Z,7.33
2019-03-10T12:12:51.792Z,6.03
2019-03-10T12:15:27.793Z,5.03
2019-03-10T12:18:18.734Z,9.67
2019-03-10T12:21:14.077Z,9.37
2019-03-10T12:23:58.937Z,7.43
2019-03-10T12:26:43.347Z,7.77
2019-03-10T12:29:18.783Z,10.73
2019-03-10T12:31:58.688Z,6.27
2019-03-10T12:34:45.998Z,8.80
2019-03-10T12:37:27.276Z,9.57
2019-03-10T12:40:16.847Z,11.07
2019-03-10T12:43:01.445Z,8.13
2019-03-10T12:45:44.793Z,14.30
2019-03-10T12:48:25.430Z,6.57
2019-03-10T12:51:07.625Z,9.77
2019-03-10T12:53:51.121Z,9.33
2019-03-10T12:56:31.708Z,8.60
2019-03-10T12:59:23.219Z,10.27
2019-03-10T13:02:05.016Z,11.67
2019-03-10T13:04:50.473Z,8.77
2019-03-10T13:07:36.997Z,8.23
2019-03-10T13:10:13.265Z,9.20
2019-03-10T13:12:46.921Z,6.83
2019-03-10T13:15:23.816Z,8.77
2019-03-10T13:17:56.866Z,9.57
2019-03-10T13:20:33.936Z,9.73
2019-03-10T13:23:05.794Z,5.73
2019-03-10T13:25:38.241Z,11.70
2019-03-10T13:28:12.255Z,9.43
2019-03-10T13:30:44.457Z,6.80
2019-03-10T13:33:20.675Z,4.10
2019-03-10T13:35:53.603Z,8.57
2019-03-10T13:38:25.443Z,6.57
2019-03-10T13:40:57.060Z,6.63
2019-03-10T13:43:28.070Z,8.73
2019-03-10T13:46:00.485Z,7.80
2019-03-10T13:48:35.477Z,8.40
2019-03-10T13:51:09.679Z,8.77
2019-03-10T13:53:41.718Z,10.50
2019-03-10T13:56:13.554Z,7.87
2019-03-10T13:58:45.790Z,8.50
2019-03-10T14:01:19.933Z,5.90
2019-03-10T14:03:54.301Z,3.90
2019-03-10T14:06:31.215Z,6.13
2019-03-10T14:09:06.002Z,6.13
2019-03-10T14:11:41.475Z,5.40
2019-03-10T14:14:15.861Z,4.83
2019-03-10T14:16:50.287Z,4.77
2019-03-10T14:19:24.891Z,9.40
2019-03-10T14:21:58.981Z,9.70
2019-03-10T14:24:33.270Z,6.37
2019-03-10T14:27:06.946Z,2.57
2019-03-10T14:29:41.854Z,6.73
2019-03-10T14:32:15.022Z,5.27
2019-03-10T14:34:49.045Z,3.33
2019-03-10T14:37:22.096Z,8.87
2019-03-10T14:39:55.206Z,3.80
2019-03-10T14:42:29.786Z,5.90
2019-03-10T14:45:04.122Z,6.83
2019-03-10T14:47:36.967Z,4.47
2019-03-10T14:50:12.585Z,3.33
2019-03-10T14:52:44.673Z,5.33
2019-03-10T14:55:19.687Z,5.40
2019-03-10T14:57:52.490Z,5.43
2019-03-10T15:00:30.098Z,1.57
2019-03-10T15:03:02.343Z,4.30
2019-03-10T15:05:36.442Z,4.10
2019-03-10T15:08:09.600Z,3.23
2019-03-10T15:10:42.184Z,5.00
2019-03-10T15:13:15.099Z,4.97
2019-03-10T15:15:48.293Z,4.33
2019-03-10T15:18:23.033Z,2.73
2019-03-10T15:20:54.408Z,2.57
2019-03-10T15:23:28.708Z,2.67
2019-03-10T15:26:02.275Z,5.80
2019-03-10T15:28:35.393Z,5.50
2019-03-10T15:31:06.398Z,3.40
2019-03-10T15:33:39.631Z,1.97
2019-03-10T15:36:20.281Z,5.73
2019-03-10T15:38:49.428Z,3.20
2019-03-10T15:41:20.624Z,3.40
2019-03-10T15:43:53.141Z,6.87
2019-03-10T15:46:25.506Z,4.60
2019-03-10T15:48:58.668Z,5.60
2019-03-10T15:51:31.063Z,6.07
2019-03-10T15:54:05.873Z,5.30
2019-03-10T15:56:43.351Z,3.17
2019-03-10T15:59:15.070Z,5.33
2019-03-10T16:01:47.610Z,1.93
2019-03-10T16:04:24.288Z,2.67
2019-03-10T16:07:01.885Z,4.00
2019-03-10T16:09:37.110Z,3.17
2019-03-10T16:12:11.075Z,5.13
2019-03-10T16:14:45.339Z,4.30
2019-03-10T16:17:17.570Z,2.50
2019-03-10T16:19:51.804Z,3.60
2019-03-10T16:22:26.743Z,5.00
2019-03-10T16:25:02.042Z,6.20
2019-03-10T16:27:35.164Z,4.07
2019-03-10T16:30:19.028Z,3.83
2019-03-10T16:32:55.388Z,6.20
2019-03-10T16:35:27.399Z,2.83
2019-03-10T16:38:01.867Z,3.70
2019-03-10T16:40:33.217Z,6.20
2019-03-10T16:43:05.918Z,9.33
2019-03-10T16:45:52.933Z,5.87
2019-03-10T16:48:25.632Z,4.03
2019-03-10T16:50:57.494Z,3.17
2019-03-10T16:53:31.808Z,6.97
2019-03-10T16:56:03.983Z,3.27
2019-03-10T16:58:35.899Z,6.10
2019-03-10T17:01:08.998Z,5.63
2019-03-10T17:03:41.390Z,5.57
2019-03-10T17:06:15.127Z,7.73
2019-03-10T17:08:47.558Z,5.53
2019-03-10T17:11:19.573Z,7.80
2019-03-10T17:13:52.467Z,6.03
2019-03-10T17:16:25.032Z,4.47
2019-03-10T17:18:57.691Z,4.77
2019-03-10T17:21:31.670Z,4.70
2019-03-10T17:24:05.299Z,5.23
2019-03-10T17:26:37.534Z,5.00
2019-03-10T17:29:11.347Z,3.87
2019-03-10T17:31:45.021Z,3.57
2019-03-10T17:34:18.450Z,3.53
2019-03-10T17:36:52.576Z,4.70
2019-03-10T17:39:29.212Z,2.50
2019-03-10T17:44:58.603Z,3.27
2019-03-10T17:47:33.051Z,6.63
2019-03-10T17:50:09.349Z,3.90
2019-03-10T17:52:40.635Z,6.23
2019-03-10T17:55:19.005Z,5.27
2019-03-10T17:57:50.707Z,4.33
2019-03-10T18:00:23.608Z,6.60
2019-03-10T18:02:57.734Z,4.90
2019-03-10T18:05:33.199Z,5.50
2019-03-10T18:08:11.925Z,6.33
2019-03-10T18:10:44.699Z,3.57
2019-03-10T18:13:18.148Z,6.00
2019-03-10T18:15:50.284Z,5.50
2019-03-10T18:18:23.506Z,3.47
2019-03-10T18:20:57.196Z,6.73
2019-03-10T18:23:29.802Z,5.47
2019-03-10T18:26:02.807Z,4.00
2019-03-10T18:28:36.438Z,4.07
2019-03-10T18:31:08.767Z,4.17
2019-03-10T18:33:39.637Z,5.13
2019-03-10T18:36:13.425Z,6.83
2019-03-10T18:38:46.363Z,6.03
2019-03-10T18:41:20.052Z,7.90
2019-03-10T18:43:52.006Z,4.57
2019-03-10T18:46:23.165Z,6.70
2019-03-10T18:48:54.560Z,5.23
2019-03-10T18:51:31.441Z,4.30
2019-03-10T18:54:03.698Z,6.60
2019-03-10T18:56:37.117Z,4.97
2019-03-10T18:59:11.882Z,6.43
2019-03-10T19:01:43.495Z,6.30
2019-03-10T19:04:18.405Z,7.37
2019-03-10T19:06:50.627Z,5.17
2019-03-10T19:09:22.717Z,5.17
2019-03-10T19:12:00.821Z,3.97
2019-03-10T19:14:39.712Z,4.43
2019-03-10T19:17:12.211Z,6.10
2019-03-10T19:19:54.729Z,4.50
2019-03-10T19:22:35.728Z,5.77
2019-03-10T19:25:20.595Z,8.10
2019-03-10T19:28:21.149Z,5.73
2019-03-10T19:31:19.074Z,3.67
2019-03-10T19:34:21.776Z,4.03
2019-03-10T19:37:00.568Z,6.03
2019-03-10T19:39:36.356Z,5.40
2019-03-10T19:42:11.805Z,6.83
2019-03-10T19:45:05.098Z,5.33
2019-03-10T19:47:39.164Z,8.33
2019-03-10T19:50:17.400Z,6.40
2019-03-10T19:52:49.950Z,6.77
2019-03-10T19:55:30.218Z,7.77
2019-03-10T19:58:18.665Z,9.70
2019-03-10T20:01:00.541Z,7.70
2019-03-10T20:03:33.547Z,7.23
2019-03-10T20:06:05.103Z,9.43
2019-03-10T20:08:38.142Z,10.33
2019-03-10T20:11:08.656Z,9.37
2019-03-10T20:13:39.639Z,10.17
2019-03-10T20:16:10.514Z,12.07
2019-03-10T20:18:43.291Z,12.03
2019-03-10T20:21:19.451Z,8.13
2019-03-10T20:23:56.593Z,15.77
2019-03-10T20:26:33.246Z,9.27
2019-03-10T20:29:06.613Z,7.43
2019-03-10T20:31:41.695Z,7.80
2019-03-10T20:34:13.400Z,12.53
2019-03-10T20:36:45.594Z,10.17
2019-03-10T20:39:19.309Z,9.10
2019-03-10T20:42:04.518Z,10.13
2019-03-10T20:44:26.059Z,12.33
2019-03-10T20:47:00.327Z,10.20
2019-03-10T20:49:35.466Z,10.53
2019-03-10T20:52:10.486Z,9.50
2019-03-10T20:54:44.815Z,13.27
2019-03-10T20:57:17.253Z,9.77
2019-03-10T21:00:00.192Z,11.67
2019-03-10T21:02:25.789Z,8.33
2019-03-10T21:04:57.270Z,10.20
2019-03-10T21:07:32.988Z,9.73
2019-03-10T21:10:09.136Z,9.07
2019-03-10T21:12:42.724Z,11.27
2019-03-10T21:15:19.227Z,12.33
2019-03-10T21:17:52.231Z,16.20
2019-03-10T21:20:24.645Z,8.63
2019-03-10T21:22:57.616Z,7.50
2019-03-10T21:25:33.319Z,9.90
2019-03-10T21:28:11.632Z,10.87
2019-03-10T21:30:44.601Z,10.47
2019-03-10T21:33:17.544Z,9.70
2019-03-10T21:35:50.651Z,7.53
2019-03-10T21:38:26.790Z,6.23
2019-03-10T21:40:59.559Z,8.17
2019-03-10T21:43:34.777Z,9.70
2019-03-10T21:46:07.598Z,12.13
2019-03-10T21:48:39.852Z,9.73
2019-03-10T21:51:11.624Z,9.33
2019-03-10T21:53:44.330Z,11.10
2019-03-10T21:56:16.630Z,12.23
2019-03-10T21:58:48.101Z,13.53
2019-03-10T22:01:21.254Z,8.07
2019-03-10T22:03:55.517Z,6.50
2019-03-10T22:06:28.121Z,7.60
2019-03-10T22:09:01.582Z,6.80
2019-03-10T22:11:35.628Z,9.27
2019-03-10T22:14:14.444Z,7.77
2019-03-10T22:16:50.155Z,7.20
2019-03-10T22:19:25.396Z,7.33
2019-03-10T22:22:05.706Z,11.07
2019-03-10T22:24:41.371Z,7.30
2019-03-10T22:27:13.539Z,7.73
2019-03-10T22:29:45.535Z,10.03
2019-03-10T22:32:18.707Z,6.87
2019-03-10T22:34:51.781Z,12.30
2019-03-10T22:37:27.742Z,8.03
2019-03-10T22:40:01.177Z,8.07
2019-03-10T22:42:43.634Z,6.90
2019-03-10T22:45:17.107Z,8.13
2019-03-10T22:47:50.898Z,7.97
2019-03-10T22:50:26.385Z,7.50
2019-03-10T22:53:06.256Z,6.63
2019-03-10T22:55:37.366Z,6.73
2019-03-10T22:58:17.389Z,7.50
2019-03-10T23:00:52.524Z,11.57
2019-03-10T23:03:24.568Z,10.43
2019-03-10T23:06:07.490Z,9.47
2019-03-10T23:08:41.843Z,8.80
2019-03-10T23:11:14.277Z,9.43
2019-03-10T23:13:45.431Z,8.47
2019-03-10T23:16:16.901Z,6.67
2019-03-10T23:18:50.261Z,11.60
2019-03-10T23:21:25.001Z,6.53
2019-03-10T23:23:57.781Z,8.70
2019-03-10T23:26:31.022Z,8.77
2019-03-10T23:29:06.114Z,9.17
2019-03-10T23:31:39.679Z,8.83
2019-03-10T23:34:12.876Z,9.67
2019-03-10T23:36:47.879Z,8.73
2019-03-10T23:39:18.713Z,11.87
2019-03-10T23:41:50.802Z,11.10
2019-03-10T23:44:23.414Z,8.03
2019-03-10T23:46:55.792Z,10.23
2019-03-10T23:49:29.124Z,10.80
2019-03-10T23:52:04.420Z,12.03
2019-03-10T23:54:36.720Z,11.00
2019-03-10T23:57:08.945Z,9.93
2019-03-10T23:59:40.189Z,14.77
